sensor_id;sensor_type;location;lat;lon;timestamp;pressure;altitude;pressure_sealevel;temperature;humidity
9525;BME280;15940;48.734;9.112;2023-03-14T00:02:04;95015.06;;;8.19;97.87
9525;BME280;15940;48.734;9.112;2023-03-14T00:04:32;94988.59;;;8.18;97.64
9525;BME280;15940;48.734;9.112;2023-03-14T00:06:59;95008.47;;;8.15;98.03
9525;BME280;15940;48.734;9.112;2023-03-14T00:09:26;95009.97;;;8.16;98.29
9525;BME280;15940;48.734;9.112;2023-03-14T00:11:55;94994.03;;;8.12;98.08
9525;BME280;15940;48.734;9.112;2023-03-14T00:14:22;94990.09;;;8.13;98.36
9525;BME280;15940;48.734;9.112;2023-03-14T00:16:50;94988.13;;;8.14;98.28
9525;BME280;15940;48.734;9.112;2023-03-14T00:19:16;94992.28;;;8.15;97.93
9525;BME280;15940;48.734;9.112;2023-03-14T00:21:45;94967.81;;;8.13;98.33
9525;BME280;15940;48.734;9.112;2023-03-14T00:24:13;94966.56;;;8.14;98.13
9525;BME280;15940;48.734;9.112;2023-03-14T00:26:40;94963.66;;;8.12;97.95
9525;BME280;15940;48.734;9.112;2023-03-14T00:29:07;94969.56;;;8.10;98.15
9525;BME280;15940;48.734;9.112;2023-03-14T00:31:34;94974.44;;;8.12;98.00
9525;BME280;15940;48.734;9.112;2023-03-14T00:34:01;94971.47;;;8.15;97.77
9525;BME280;15940;48.734;9.112;2023-03-14T00:36:28;94976.63;;;8.13;97.77
9525;BME280;15940;48.734;9.112;2023-03-14T00:38:57;94990.84;;;8.14;97.96
9525;BME280;15940;48.734;9.112;2023-03-14T00:41:23;94993.06;;;8.15;97.83
9525;BME280;15940;48.734;9.112;2023-03-14T00:43:50;94984.44;;;8.17;97.65
9525;BME280;15940;48.734;9.112;2023-03-14T00:46:18;94976.88;;;8.15;97.66
9525;BME280;15940;48.734;9.112;2023-03-14T00:48:45;94971.47;;;8.15;97.69
9525;BME280;15940;48.734;9.112;2023-03-14T00:51:12;94975.91;;;8.13;97.58
9525;BME280;15940;48.734;9.112;2023-03-14T00:53:41;94988.13;;;8.14;97.05
9525;BME280;15940;48.734;9.112;2023-03-14T00:56:12;94986.19;;;8.14;97.01
9525;BME280;15940;48.734;9.112;2023-03-14T00:58:39;94990.09;;;8.13;96.87
9525;BME280;15940;48.734;9.112;2023-03-14T01:01:08;94993.06;;;8.15;96.79
9525;BME280;15940;48.734;9.112;2023-03-14T01:03:36;94996.47;;;8.16;96.67
9525;BME280;15940;48.734;9.112;2023-03-14T01:06:12;95004.69;;;8.23;95.85
9525;BME280;15940;48.734;9.112;2023-03-14T01:08:39;95003.69;;;8.26;95.87
9525;BME280;15940;48.734;9.112;2023-03-14T01:11:11;94997.28;;;8.29;95.31
9525;BME280;15940;48.734;9.112;2023-03-14T01:13:39;95002.91;;;8.31;94.74
9525;BME280;15940;48.734;9.112;2023-03-14T01:16:09;94991.88;;;8.29;94.83
9525;BME280;15940;48.734;9.112;2023-03-14T01:18:37;94980.38;;;8.29;94.71
9525;BME280;15940;48.734;9.112;2023-03-14T01:21:11;94990.38;;;8.34;94.46
9525;BME280;15940;48.734;9.112;2023-03-14T01:23:38;94981.53;;;8.34;94.59
9525;BME280;15940;48.734;9.112;2023-03-14T01:26:09;94961.47;;;8.35;94.48
9525;BME280;15940;48.734;9.112;2023-03-14T01:28:37;94951.66;;;8.31;94.48
9525;BME280;15940;48.734;9.112;2023-03-14T01:31:05;94942.56;;;8.35;93.96
9525;BME280;15940;48.734;9.112;2023-03-14T01:33:33;94955.78;;;8.32;93.75
9525;BME280;15940;48.734;9.112;2023-03-14T01:36:00;94947.69;;;8.32;93.70
9525;BME280;15940;48.734;9.112;2023-03-14T01:38:28;94936.91;;;8.32;93.66
9525;BME280;15940;48.734;9.112;2023-03-14T01:40:55;94929.34;;;8.31;93.73
9525;BME280;15940;48.734;9.112;2023-03-14T01:43:24;94921.97;;;8.31;93.49
9525;BME280;15940;48.734;9.112;2023-03-14T01:46:22;94905.78;;;8.31;93.02
9525;BME280;15940;48.734;9.112;2023-03-14T01:48:56;94899.16;;;8.32;92.00
9525;BME280;15940;48.734;9.112;2023-03-14T01:51:29;94916.34;;;8.35;92.01
9525;BME280;15940;48.734;9.112;2023-03-14T01:54:05;94903.41;;;8.28;91.75
9525;BME280;15940;48.734;9.112;2023-03-14T01:56:33;94893.41;;;8.23;91.27
9525;BME280;15940;48.734;9.112;2023-03-14T01:59:04;94890.50;;;8.21;91.65
9525;BME280;15940;48.734;9.112;2023-03-14T02:01:33;94904.50;;;8.19;91.30
9525;BME280;15940;48.734;9.112;2023-03-14T02:04:04;94906.97;;;8.17;91.42
9525;BME280;15940;48.734;9.112;2023-03-14T02:06:40;94896.69;;;8.16;91.87
9525;BME280;15940;48.734;9.112;2023-03-14T02:09:09;94903.03;;;8.18;91.77
9525;BME280;15940;48.734;9.112;2023-03-14T02:11:36;94920.25;;;8.15;92.20
9525;BME280;15940;48.734;9.112;2023-03-14T02:14:05;94910.66;;;8.14;92.37
9525;BME280;15940;48.734;9.112;2023-03-14T02:16:32;94911.19;;;8.13;92.55
9525;BME280;15940;48.734;9.112;2023-03-14T02:19:00;94904.34;;;8.12;92.84
9525;BME280;15940;48.734;9.112;2023-03-14T02:21:38;94900.69;;;8.09;93.17
9525;BME280;15940;48.734;9.112;2023-03-14T02:24:19;94894.06;;;8.10;93.29
9525;BME280;15940;48.734;9.112;2023-03-14T02:27:15;94886.72;;;8.11;93.41
9525;BME280;15940;48.734;9.112;2023-03-14T02:29:49;94885.97;;;8.10;93.35
9525;BME280;15940;48.734;9.112;2023-03-14T02:32:18;94881.31;;;8.11;93.55
9525;BME280;15940;48.734;9.112;2023-03-14T02:34:49;94879.63;;;8.08;93.66
9525;BME280;15940;48.734;9.112;2023-03-14T02:37:19;94886.28;;;8.07;93.96
9525;BME280;15940;48.734;9.112;2023-03-14T02:39:48;94880.38;;;8.08;93.73
9525;BME280;15940;48.734;9.112;2023-03-14T02:42:17;94884.00;;;8.11;93.47
9525;BME280;15940;48.734;9.112;2023-03-14T02:44:53;94881.09;;;8.09;93.60
9525;BME280;15940;48.734;9.112;2023-03-14T02:47:29;94855.06;;;8.11;93.25
9525;BME280;15940;48.734;9.112;2023-03-14T02:50:01;94876.66;;;8.11;92.72
9525;BME280;15940;48.734;9.112;2023-03-14T02:52:28;94862.66;;;8.13;92.68
9525;BME280;15940;48.734;9.112;2023-03-14T02:54:56;94847.72;;;8.12;92.39
9525;BME280;15940;48.734;9.112;2023-03-14T02:57:24;94847.81;;;8.06;92.18
9525;BME280;15940;48.734;9.112;2023-03-14T02:59:51;94832.13;;;8.05;92.16
9525;BME280;15940;48.734;9.112;2023-03-14T03:02:18;94838.75;;;8.03;91.77
9525;BME280;15940;48.734;9.112;2023-03-14T03:04:45;94825.56;;;8.00;91.73
9525;BME280;15940;48.734;9.112;2023-03-14T03:07:12;94839.56;;;7.98;91.73
9525;BME280;15940;48.734;9.112;2023-03-14T03:09:39;94833.25;;;7.96;91.31
9525;BME280;15940;48.734;9.112;2023-03-14T03:12:06;94829.06;;;7.95;90.90
9525;BME280;15940;48.734;9.112;2023-03-14T03:14:34;94816.09;;;7.93;90.88
9525;BME280;15940;48.734;9.112;2023-03-14T03:17:03;94806.56;;;7.92;90.62
9525;BME280;15940;48.734;9.112;2023-03-14T03:19:30;94802.41;;;7.91;90.56
9525;BME280;15940;48.734;9.112;2023-03-14T03:21:57;94807.06;;;7.91;90.16
9525;BME280;15940;48.734;9.112;2023-03-14T03:24:24;94802.19;;;7.89;89.75
9525;BME280;15940;48.734;9.112;2023-03-14T03:26:51;94793.53;;;7.96;88.65
9525;BME280;15940;48.734;9.112;2023-03-14T03:29:18;94796.22;;;7.96;87.93
9525;BME280;15940;48.734;9.112;2023-03-14T03:31:47;94784.47;;;7.94;88.11
9525;BME280;15940;48.734;9.112;2023-03-14T03:34:14;94791.84;;;7.93;87.09
9525;BME280;15940;48.734;9.112;2023-03-14T03:36:41;94777.94;;;7.89;87.25
9525;BME280;15940;48.734;9.112;2023-03-14T03:39:08;94779.91;;;7.89;86.42
9525;BME280;15940;48.734;9.112;2023-03-14T03:41:35;94768.47;;;7.83;87.16
9525;BME280;15940;48.734;9.112;2023-03-14T03:44:02;94758.00;;;7.79;87.45
9525;BME280;15940;48.734;9.112;2023-03-14T03:46:31;94766.13;;;7.73;86.63
9525;BME280;15940;48.734;9.112;2023-03-14T03:49:00;94759.28;;;7.72;86.51
9525;BME280;15940;48.734;9.112;2023-03-14T03:51:27;94761.47;;;7.74;86.09
9525;BME280;15940;48.734;9.112;2023-03-14T03:53:56;94751.50;;;7.69;85.94
9525;BME280;15940;48.734;9.112;2023-03-14T03:56:23;94756.38;;;7.70;84.65
9525;BME280;15940;48.734;9.112;2023-03-14T03:58:50;94746.34;;;7.71;86.32
9525;BME280;15940;48.734;9.112;2023-03-14T04:01:17;94751.28;;;7.67;85.06
9525;BME280;15940;48.734;9.112;2023-03-14T04:03:44;94749.41;;;7.62;85.44
9525;BME280;15940;48.734;9.112;2023-03-14T04:06:13;94748.22;;;7.57;85.18
9525;BME280;15940;48.734;9.112;2023-03-14T04:08:40;94746.78;;;7.56;83.85
9525;BME280;15940;48.734;9.112;2023-03-14T04:11:12;94747.28;;;7.55;85.16
9525;BME280;15940;48.734;9.112;2023-03-14T04:13:38;94740.13;;;7.57;83.83
9525;BME280;15940;48.734;9.112;2023-03-14T04:16:13;94739.66;;;7.59;83.91
9525;BME280;15940;48.734;9.112;2023-03-14T04:18:41;94746.78;;;7.56;83.87
9525;BME280;15940;48.734;9.112;2023-03-14T04:21:08;94742.84;;;7.57;83.65
9525;BME280;15940;48.734;9.112;2023-03-14T04:23:36;94740.50;;;7.67;83.03
9525;BME280;15940;48.734;9.112;2023-03-14T04:26:03;94738.09;;;7.63;82.70
9525;BME280;15940;48.734;9.112;2023-03-14T04:28:30;94732.72;;;7.63;82.60
9525;BME280;15940;48.734;9.112;2023-03-14T04:30:57;94734.47;;;7.61;82.99
9525;BME280;15940;48.734;9.112;2023-03-14T04:33:24;94730.84;;;7.58;82.94
9525;BME280;15940;48.734;9.112;2023-03-14T04:35:54;94726.41;;;7.61;81.98
9525;BME280;15940;48.734;9.112;2023-03-14T04:38:21;94729.00;;;7.66;81.63
9525;BME280;15940;48.734;9.112;2023-03-14T04:40:49;94720.50;;;7.62;82.19
9525;BME280;15940;48.734;9.112;2023-03-14T04:43:16;94704.19;;;7.55;82.35
9525;BME280;15940;48.734;9.112;2023-03-14T04:45:43;94716.19;;;7.54;82.79
9525;BME280;15940;48.734;9.112;2023-03-14T04:48:10;94719.72;;;7.49;82.72
9525;BME280;15940;48.734;9.112;2023-03-14T04:50:38;94703.31;;;7.47;82.59
9525;BME280;15940;48.734;9.112;2023-03-14T04:53:05;94705.28;;;7.46;82.57
9525;BME280;15940;48.734;9.112;2023-03-14T04:55:32;94696.25;;;7.43;83.51
9525;BME280;15940;48.734;9.112;2023-03-14T04:58:01;94700.47;;;7.39;83.19
9525;BME280;15940;48.734;9.112;2023-03-14T05:00:28;94689.94;;;7.41;84.01
9525;BME280;15940;48.734;9.112;2023-03-14T05:02:55;94695.59;;;7.37;82.93
9525;BME280;15940;48.734;9.112;2023-03-14T05:05:22;94687.53;;;7.37;83.19
9525;BME280;15940;48.734;9.112;2023-03-14T05:07:49;94673.53;;;7.39;83.74
9525;BME280;15940;48.734;9.112;2023-03-14T05:10:16;94683.69;;;7.33;83.13
9525;BME280;15940;48.734;9.112;2023-03-14T05:12:43;94684.41;;;7.33;83.55
9525;BME280;15940;48.734;9.112;2023-03-14T05:15:11;94677.84;;;7.29;82.99
9525;BME280;15940;48.734;9.112;2023-03-14T05:17:38;94679.22;;;7.35;84.41
9525;BME280;15940;48.734;9.112;2023-03-14T05:20:07;94668.47;;;7.35;82.47
9525;BME280;15940;48.734;9.112;2023-03-14T05:22:35;94680.69;;;7.36;82.41
9525;BME280;15940;48.734;9.112;2023-03-14T05:25:03;94676.53;;;7.35;82.35
9525;BME280;15940;48.734;9.112;2023-03-14T05:27:30;94675.00;;;7.40;82.94
9525;BME280;15940;48.734;9.112;2023-03-14T05:29:57;94670.84;;;7.39;83.15
9525;BME280;15940;48.734;9.112;2023-03-14T05:32:25;94668.66;;;7.37;83.10
9525;BME280;15940;48.734;9.112;2023-03-14T05:34:52;94675.50;;;7.38;82.90
9525;BME280;15940;48.734;9.112;2023-03-14T05:37:23;94666.22;;;7.39;82.99
9525;BME280;15940;48.734;9.112;2023-03-14T05:39:50;94668.16;;;7.39;83.53
9525;BME280;15940;48.734;9.112;2023-03-14T05:42:17;94662.75;;;7.39;82.65
9525;BME280;15940;48.734;9.112;2023-03-14T05:44:44;94659.66;;;7.35;82.55
9525;BME280;15940;48.734;9.112;2023-03-14T05:47:11;94660.59;;;7.37;83.49
9525;BME280;15940;48.734;9.112;2023-03-14T05:49:39;94651.56;;;7.35;82.33
9525;BME280;15940;48.734;9.112;2023-03-14T05:52:06;94657.16;;;7.37;82.55
9525;BME280;15940;48.734;9.112;2023-03-14T05:54:34;94658.19;;;7.34;82.30
9525;BME280;15940;48.734;9.112;2023-03-14T05:57:00;94643.91;;;7.39;82.55
9525;BME280;15940;48.734;9.112;2023-03-14T05:59:28;94647.44;;;7.34;82.48
9525;BME280;15940;48.734;9.112;2023-03-14T06:01:54;94658.19;;;7.34;82.55
9525;BME280;15940;48.734;9.112;2023-03-14T06:04:21;94653.03;;;7.36;81.31
9525;BME280;15940;48.734;9.112;2023-03-14T06:06:50;94653.22;;;7.38;82.09
9525;BME280;15940;48.734;9.112;2023-03-14T06:09:17;94654.78;;;7.33;82.33
9525;BME280;15940;48.734;9.112;2023-03-14T06:11:45;94650.84;;;7.34;82.30
9525;BME280;15940;48.734;9.112;2023-03-14T06:14:12;94641.22;;;7.39;81.79
9525;BME280;15940;48.734;9.112;2023-03-14T06:16:39;94632.34;;;7.44;80.85
9525;BME280;15940;48.734;9.112;2023-03-14T06:19:06;94627.91;;;7.47;81.50
9525;BME280;15940;48.734;9.112;2023-03-14T06:21:33;94640.44;;;7.44;81.00
9525;BME280;15940;48.734;9.112;2023-03-14T06:24:02;94623.53;;;7.43;81.25
9525;BME280;15940;48.734;9.112;2023-03-14T06:26:29;94633.22;;;7.52;80.01
9525;BME280;15940;48.734;9.112;2023-03-14T06:28:56;94623.16;;;7.53;80.81
9525;BME280;15940;48.734;9.112;2023-03-14T06:31:25;94639.41;;;7.47;81.10
9525;BME280;15940;48.734;9.112;2023-03-14T06:33:52;94624.63;;;7.54;79.63
9525;BME280;15940;48.734;9.112;2023-03-14T06:36:18;94636.03;;;7.60;79.75
9525;BME280;15940;48.734;9.112;2023-03-14T06:38:45;94638.22;;;7.61;81.42
9525;BME280;15940;48.734;9.112;2023-03-14T06:41:14;94634.16;;;7.55;80.48
9525;BME280;15940;48.734;9.112;2023-03-14T06:43:41;94641.50;;;7.54;80.83
9525;BME280;15940;48.734;9.112;2023-03-14T06:46:08;94635.53;;;7.61;80.22
9525;BME280;15940;48.734;9.112;2023-03-14T06:48:35;94639.28;;;7.71;79.66
9525;BME280;15940;48.734;9.112;2023-03-14T06:51:02;94632.59;;;7.91;78.07
9525;BME280;15940;48.734;9.112;2023-03-14T06:53:29;94630.97;;;8.01;77.79
9525;BME280;15940;48.734;9.112;2023-03-14T06:55:56;94633.84;;;8.03;77.77
9525;BME280;15940;48.734;9.112;2023-03-14T06:58:25;94645.88;;;8.02;78.22
9525;BME280;15940;48.734;9.112;2023-03-14T07:00:53;94639.91;;;8.10;77.63
9525;BME280;15940;48.734;9.112;2023-03-14T07:03:20;94651.31;;;8.16;77.57
9525;BME280;15940;48.734;9.112;2023-03-14T07:05:47;94651.31;;;8.16;77.35
9525;BME280;15940;48.734;9.112;2023-03-14T07:08:14;94644.25;;;8.13;77.61
9525;BME280;15940;48.734;9.112;2023-03-14T07:10:41;94651.31;;;8.29;76.95
9525;BME280;15940;48.734;9.112;2023-03-14T07:13:08;94650.53;;;8.61;76.25
9525;BME280;15940;48.734;9.112;2023-03-14T07:15:37;94650.13;;;8.70;74.91
9525;BME280;15940;48.734;9.112;2023-03-14T07:18:04;94641.50;;;8.58;74.89
9525;BME280;15940;48.734;9.112;2023-03-14T07:20:30;94641.72;;;8.73;74.92
9525;BME280;15940;48.734;9.112;2023-03-14T07:22:58;94640.66;;;8.90;74.11
9525;BME280;15940;48.734;9.112;2023-03-14T07:25:28;94644.47;;;9.07;74.39
9525;BME280;15940;48.734;9.112;2023-03-14T07:27:55;94638.09;;;9.31;73.70
9525;BME280;15940;48.734;9.112;2023-03-14T07:30:22;94645.41;;;9.44;72.20
9525;BME280;15940;48.734;9.112;2023-03-14T07:32:50;94657.84;;;9.60;71.83
9525;BME280;15940;48.734;9.112;2023-03-14T07:35:17;94657.97;;;9.76;70.85
9525;BME280;15940;48.734;9.112;2023-03-14T07:37:44;94653.75;;;9.88;71.31
9525;BME280;15940;48.734;9.112;2023-03-14T07:40:12;94655.06;;;10.15;69.30
9525;BME280;15940;48.734;9.112;2023-03-14T07:42:41;94664.28;;;10.41;67.63
9525;BME280;15940;48.734;9.112;2023-03-14T07:45:08;94672.31;;;10.25;68.38
9525;BME280;15940;48.734;9.112;2023-03-14T07:47:36;94671.69;;;10.40;69.97
9525;BME280;15940;48.734;9.112;2023-03-14T07:50:05;94680.88;;;10.94;67.65
9525;BME280;15940;48.734;9.112;2023-03-14T07:52:33;94669.63;;;11.26;65.90
9525;BME280;15940;48.734;9.112;2023-03-14T07:55:00;94669.50;;;11.39;65.61
9525;BME280;15940;48.734;9.112;2023-03-14T07:57:27;94683.38;;;11.28;65.40
9525;BME280;15940;48.734;9.112;2023-03-14T07:59:53;94672.25;;;11.55;64.85
9525;BME280;15940;48.734;9.112;2023-03-14T08:02:20;94678.59;;;11.57;65.40
9525;BME280;15940;48.734;9.112;2023-03-14T08:04:50;94665.84;;;11.88;62.93
9525;BME280;15940;48.734;9.112;2023-03-14T08:07:18;94675.22;;;11.80;62.07
9525;BME280;15940;48.734;9.112;2023-03-14T08:09:45;94679.47;;;11.52;63.49
9525;BME280;15940;48.734;9.112;2023-03-14T08:12:12;94671.94;;;11.14;65.70
9525;BME280;15940;48.734;9.112;2023-03-14T08:14:39;94677.25;;;11.35;66.26
9525;BME280;15940;48.734;9.112;2023-03-14T08:17:06;94678.22;;;11.61;65.20
9525;BME280;15940;48.734;9.112;2023-03-14T08:19:33;94667.63;;;11.93;62.95
9525;BME280;15940;48.734;9.112;2023-03-14T08:22:00;94676.88;;;11.98;63.09
9525;BME280;15940;48.734;9.112;2023-03-14T08:24:30;94669.31;;;12.35;63.42
9525;BME280;15940;48.734;9.112;2023-03-14T08:26:57;94665.44;;;12.68;60.01
9525;BME280;15940;48.734;9.112;2023-03-14T08:29:24;94670.00;;;12.66;59.60
9525;BME280;15940;48.734;9.112;2023-03-14T08:31:51;94670.88;;;12.76;58.98
9525;BME280;15940;48.734;9.112;2023-03-14T08:34:19;94662.06;;;13.23;58.40
9525;BME280;15940;48.734;9.112;2023-03-14T08:36:46;94673.72;;;13.01;58.32
9525;BME280;15940;48.734;9.112;2023-03-14T08:39:13;94673.44;;;12.58;59.89
9525;BME280;15940;48.734;9.112;2023-03-14T08:41:41;94681.03;;;12.68;58.45
9525;BME280;15940;48.734;9.112;2023-03-14T08:44:10;94683.34;;;12.86;60.13
9525;BME280;15940;48.734;9.112;2023-03-14T08:46:38;94694.44;;;12.66;59.83
9525;BME280;15940;48.734;9.112;2023-03-14T08:49:05;94693.53;;;12.48;58.95
9525;BME280;15940;48.734;9.112;2023-03-14T08:51:32;94686.31;;;12.43;59.44
9525;BME280;15940;48.734;9.112;2023-03-14T08:53:59;94694.44;;;12.27;60.07
9525;BME280;15940;48.734;9.112;2023-03-14T08:56:26;94684.66;;;11.94;62.38
9525;BME280;15940;48.734;9.112;2023-03-14T08:58:54;94698.38;;;11.81;61.20
9525;BME280;15940;48.734;9.112;2023-03-14T09:01:21;94700.75;;;11.92;62.80
9525;BME280;15940;48.734;9.112;2023-03-14T09:03:49;94715.53;;;11.83;62.72
9525;BME280;15940;48.734;9.112;2023-03-14T09:06:17;94702.38;;;11.43;64.52
9525;BME280;15940;48.734;9.112;2023-03-14T09:08:44;94711.19;;;11.29;65.25
9525;BME280;15940;48.734;9.112;2023-03-14T09:11:12;94723.34;;;10.99;65.55
9525;BME280;15940;48.734;9.112;2023-03-14T09:13:40;94721.00;;;10.75;66.81
9525;BME280;15940;48.734;9.112;2023-03-14T09:16:09;94716.66;;;10.72;67.01
9525;BME280;15940;48.734;9.112;2023-03-14T09:18:36;94719.22;;;10.77;68.13
9525;BME280;15940;48.734;9.112;2023-03-14T09:21:03;94728.16;;;10.65;69.95
9525;BME280;15940;48.734;9.112;2023-03-14T09:23:31;94736.19;;;11.06;68.44
9525;BME280;15940;48.734;9.112;2023-03-14T09:25:59;94718.59;;;11.28;65.21
9525;BME280;15940;48.734;9.112;2023-03-14T09:28:27;94726.63;;;11.49;65.96
9525;BME280;15940;48.734;9.112;2023-03-14T09:30:54;94745.56;;;11.41;65.29
9525;BME280;15940;48.734;9.112;2023-03-14T09:33:22;94751.69;;;11.34;66.46
9525;BME280;15940;48.734;9.112;2023-03-14T09:35:49;94746.09;;;11.04;66.14
9525;BME280;15940;48.734;9.112;2023-03-14T09:38:16;94750.81;;;11.03;66.27
9525;BME280;15940;48.734;9.112;2023-03-14T09:40:46;94757.47;;;11.02;65.97
9525;BME280;15940;48.734;9.112;2023-03-14T09:43:14;94769.66;;;10.88;65.91
9525;BME280;15940;48.734;9.112;2023-03-14T09:45:43;94779.31;;;10.76;67.52
9525;BME280;15940;48.734;9.112;2023-03-14T09:48:16;94779.25;;;10.68;66.57
9525;BME280;15940;48.734;9.112;2023-03-14T09:50:48;94769.31;;;10.63;66.75
9525;BME280;15940;48.734;9.112;2023-03-14T09:53:19;94771.13;;;10.68;66.19
9525;BME280;15940;48.734;9.112;2023-03-14T09:55:50;94776.91;;;10.65;65.76
9525;BME280;15940;48.734;9.112;2023-03-14T09:58:20;94779.59;;;10.65;66.61
9525;BME280;15940;48.734;9.112;2023-03-14T10:00:49;94767.66;;;10.60;67.15
9525;BME280;15940;48.734;9.112;2023-03-14T10:03:26;94756.56;;;10.71;65.08
9525;BME280;15940;48.734;9.112;2023-03-14T10:05:57;94751.53;;;11.04;66.60
9525;BME280;15940;48.734;9.112;2023-03-14T10:08:24;94741.03;;;11.80;64.25
9525;BME280;15940;48.734;9.112;2023-03-14T10:10:51;94732.28;;;12.25;62.74
9525;BME280;15940;48.734;9.112;2023-03-14T10:13:22;94733.91;;;12.90;61.19
9525;BME280;15940;48.734;9.112;2023-03-14T10:15:54;94725.91;;;12.92;59.16
9525;BME280;15940;48.734;9.112;2023-03-14T10:18:23;94726.06;;;13.01;59.84
9525;BME280;15940;48.734;9.112;2023-03-14T10:21:05;94715.25;;;12.55;60.88
9525;BME280;15940;48.734;9.112;2023-03-14T10:23:34;94726.47;;;12.59;60.56
9525;BME280;15940;48.734;9.112;2023-03-14T10:26:08;94718.66;;;12.79;59.90
9525;BME280;15940;48.734;9.112;2023-03-14T10:28:42;94735.34;;;12.75;58.98
9525;BME280;15940;48.734;9.112;2023-03-14T10:31:09;94742.06;;;12.36;60.87
9525;BME280;15940;48.734;9.112;2023-03-14T10:33:38;94730.06;;;12.09;60.23
9525;BME280;15940;48.734;9.112;2023-03-14T10:36:19;94735.31;;;12.07;61.81
9525;BME280;15940;48.734;9.112;2023-03-14T10:38:47;94717.06;;;12.22;61.48
9525;BME280;15940;48.734;9.112;2023-03-14T10:41:18;94719.63;;;12.43;60.82
9525;BME280;15940;48.734;9.112;2023-03-14T10:43:50;94715.97;;;12.56;61.03
9525;BME280;15940;48.734;9.112;2023-03-14T10:46:19;94722.31;;;12.36;60.77
9525;BME280;15940;48.734;9.112;2023-03-14T10:48:47;94728.44;;;11.98;61.64
9525;BME280;15940;48.734;9.112;2023-03-14T10:51:25;94741.44;;;11.99;63.33
9525;BME280;15940;48.734;9.112;2023-03-14T10:53:58;94742.63;;;11.68;65.17
9525;BME280;15940;48.734;9.112;2023-03-14T10:56:27;94740.13;;;11.34;65.66
9525;BME280;15940;48.734;9.112;2023-03-14T10:58:59;94740.25;;;11.21;67.64
9525;BME280;15940;48.734;9.112;2023-03-14T11:01:37;94745.25;;;11.16;68.89
9525;BME280;15940;48.734;9.112;2023-03-14T11:04:18;94751.09;;;10.92;69.52
9525;BME280;15940;48.734;9.112;2023-03-14T11:06:56;94758.88;;;10.96;67.73
9525;BME280;15940;48.734;9.112;2023-03-14T11:09:32;94752.72;;;10.95;67.74
9525;BME280;15940;48.734;9.112;2023-03-14T11:12:13;94763.69;;;10.90;69.08
9525;BME280;15940;48.734;9.112;2023-03-14T11:14:50;94757.72;;;11.12;67.94
9525;BME280;15940;48.734;9.112;2023-03-14T11:17:27;94769.72;;;10.96;68.30
9525;BME280;15940;48.734;9.112;2023-03-14T11:20:25;94781.31;;;10.75;69.75
9525;BME280;15940;48.734;9.112;2023-03-14T11:23:02;94776.38;;;10.66;71.27
9525;BME280;15940;48.734;9.112;2023-03-14T11:25:34;94784.94;;;10.57;70.74
9525;BME280;15940;48.734;9.112;2023-03-14T11:28:13;94784.09;;;10.41;73.12
9525;BME280;15940;48.734;9.112;2023-03-14T11:30:51;94783.13;;;10.18;74.10
9525;BME280;15940;48.734;9.112;2023-03-14T11:33:24;94790.41;;;10.23;74.48
9525;BME280;15940;48.734;9.112;2023-03-14T11:35:59;94791.22;;;10.31;73.06
9525;BME280;15940;48.734;9.112;2023-03-14T11:38:35;94778.94;;;10.30;72.89
9525;BME280;15940;48.734;9.112;2023-03-14T11:41:08;94785.94;;;10.46;74.57
9525;BME280;15940;48.734;9.112;2023-03-14T11:43:39;94778.63;;;10.34;75.41
9525;BME280;15940;48.734;9.112;2023-03-14T11:46:13;94787.22;;;10.11;75.05
9525;BME280;15940;48.734;9.112;2023-03-14T11:48:45;94778.72;;;10.07;76.14
9525;BME280;15940;48.734;9.112;2023-03-14T11:51:20;94792.75;;;10.06;76.20
9525;BME280;15940;48.734;9.112;2023-03-14T11:54:00;94802.88;;;9.92;74.28
9525;BME280;15940;48.734;9.112;2023-03-14T11:56:34;94797.16;;;9.95;74.78
9525;BME280;15940;48.734;9.112;2023-03-14T11:59:09;94789.03;;;9.95;73.59
9525;BME280;15940;48.734;9.112;2023-03-14T12:01:53;94809.66;;;10.19;75.04
9525;BME280;15940;48.734;9.112;2023-03-14T12:04:40;94812.28;;;10.46;73.88
9525;BME280;15940;48.734;9.112;2023-03-14T12:07:17;94826.63;;;10.54;74.20
9525;BME280;15940;48.734;9.112;2023-03-14T12:09:48;94827.91;;;10.40;74.82
9525;BME280;15940;48.734;9.112;2023-03-14T12:12:19;94821.19;;;10.20;74.77
9525;BME280;15940;48.734;9.112;2023-03-14T12:14:54;94847.59;;;9.93;75.18
9525;BME280;15940;48.734;9.112;2023-03-14T12:17:26;94847.69;;;10.00;76.59
9525;BME280;15940;48.734;9.112;2023-03-14T12:20:04;94861.72;;;10.46;75.80
9525;BME280;15940;48.734;9.112;2023-03-14T12:22:35;94885.38;;;10.46;73.65
9525;BME280;15940;48.734;9.112;2023-03-14T12:25:17;94875.56;;;10.77;73.20
9525;BME280;15940;48.734;9.112;2023-03-14T12:27:49;94896.94;;;10.67;69.31
9525;BME280;15940;48.734;9.112;2023-03-14T12:30:31;94900.47;;;10.41;68.23
9525;BME280;15940;48.734;9.112;2023-03-14T12:33:28;94911.03;;;9.65;68.32
9525;BME280;15940;48.734;9.112;2023-03-14T12:36:04;94924.56;;;10.05;68.82
9525;BME280;15940;48.734;9.112;2023-03-14T12:41:41;94927.31;;;10.52;66.91
9525;BME280;15940;48.734;9.112;2023-03-14T12:44:43;94938.16;;;10.39;66.71
9525;BME280;15940;48.734;9.112;2023-03-14T12:47:51;94939.56;;;10.87;64.42
9525;BME280;15940;48.734;9.112;2023-03-14T12:50:25;94949.66;;;11.08;64.68
9525;BME280;15940;48.734;9.112;2023-03-14T12:56:27;94975.25;;;10.65;62.57
9525;BME280;15940;48.734;9.112;2023-03-14T12:59:28;94984.88;;;10.53;59.32
9525;BME280;15940;48.734;9.112;2023-03-14T13:05:04;95019.28;;;9.60;57.23
9525;BME280;15940;48.734;9.112;2023-03-14T13:08:05;95034.03;;;9.27;59.96
9525;BME280;15940;48.734;9.112;2023-03-14T13:10:42;95045.50;;;8.82;60.14
9525;BME280;15940;48.734;9.112;2023-03-14T13:13:19;95044.09;;;8.75;60.67
9525;BME280;15940;48.734;9.112;2023-03-14T13:15:53;95054.69;;;8.92;58.25
9525;BME280;15940;48.734;9.112;2023-03-14T13:18:29;95062.88;;;9.19;56.80
9525;BME280;15940;48.734;9.112;2023-03-14T13:21:02;95082.28;;;9.36;54.86
9525;BME280;15940;48.734;9.112;2023-03-14T13:23:33;95087.41;;;9.39;56.95
9525;BME280;15940;48.734;9.112;2023-03-14T13:26:01;95106.25;;;9.26;55.29
9525;BME280;15940;48.734;9.112;2023-03-14T13:28:30;95109.09;;;9.15;56.12
9525;BME280;15940;48.734;9.112;2023-03-14T13:33:17;95118.66;;;8.78;56.07
9525;BME280;15940;48.734;9.112;2023-03-14T13:35:47;95131.41;;;8.78;54.77
9525;BME280;15940;48.734;9.112;2023-03-14T13:38:20;95151.88;;;8.92;53.96
9525;BME280;15940;48.734;9.112;2023-03-14T13:40:50;95138.88;;;8.72;54.49
9525;BME280;15940;48.734;9.112;2023-03-14T13:43:23;95163.97;;;8.61;54.07
9525;BME280;15940;48.734;9.112;2023-03-14T13:45:54;95164.38;;;8.46;54.28